Time;durP1;ratioP1;P1;durP2;ratioP2;P2;SDS_P1;SDS_P2;PMS_P1;PMS_P2;Temp;Humidity;BMP_temperature;BMP_pressure;BME280_temperature;BME280_humidity;BME280_pressure;Samples;Min_cycle;Max_cycle;Signal;HPM_P1;HPM_P2
2023/10/02 00:05:05;;;;;;;0.90;0.57;;;;;;;16.84;92.35;101589.91;6156399;23;20788;-67
2023/10/02 00:07:34;;;;;;;1.00;0.70;;;;;;;16.74;92.73;101584.97;6157718;23;20423;-69
2023/10/02 00:10:04;;;;;;;1.03;0.57;;;;;;;16.84;92.31;101585.28;6157217;23;20394;-69
2023/10/02 00:12:34;;;;;;;0.90;0.50;;;;;;;16.80;93.01;101578.56;6156703;23;20441;-68
2023/10/02 00:15:12;;;;;;;0.90;0.50;;;;;;;16.83;93.44;101589.06;6157572;23;20378;-69
2023/10/02 00:17:43;;;;;;;1.67;1.47;;;;;;;16.89;92.54;101579.13;6157700;23;20348;-70
2023/10/02 00:20:19;;;;;;;1.03;0.93;;;;;;;16.87;93.64;101579.34;6157204;23;20858;-69
2023/10/02 00:22:48;;;;;;;0.90;0.50;;;;;;;16.88;91.79;101583.75;6157130;23;20405;-70
2023/10/02 00:25:19;;;;;;;1.00;0.70;;;;;;;17.00;90.13;101574.78;6157037;23;20351;-69
2023/10/02 00:27:50;;;;;;;0.80;0.40;;;;;;;17.04;89.71;101578.75;6156696;23;20388;-69
2023/10/02 00:30:21;;;;;;;0.90;0.50;;;;;;;17.12;89.25;101583.91;6156890;23;20431;-68
2023/10/02 00:32:52;;;;;;;0.90;0.70;;;;;;;17.05;89.16;101581.25;6157392;23;20380;-69
2023/10/02 00:35:23;;;;;;;0.87;0.47;;;;;;;17.08;89.66;101577.22;6130932;23;20439;-67
2023/10/02 00:37:52;;;;;;;0.80;0.50;;;;;;;17.14;88.87;101574.41;6156884;23;20345;-68
2023/10/02 00:40:28;;;;;;;1.47;1.00;;;;;;;17.17;87.72;101573.13;6130703;23;20398;-69
2023/10/02 00:42:59;;;;;;;1.10;0.97;;;;;;;17.13;88.05;101571.91;6131372;23;20446;-68
2023/10/02 00:45:37;;;;;;;1.00;0.70;;;;;;;17.14;88.14;101568.09;6130958;23;20853;-69
2023/10/02 00:50:54;;;;;;;0.90;0.50;;;;;;;17.16;88.78;101577.75;6129339;23;20425;-68
2023/10/02 00:53:37;;;;;;;0.80;0.40;;;;;;;17.16;88.93;101579.66;6157427;23;20360;-67
2023/10/02 00:56:19;;;;;;;1.67;1.13;;;;;;;17.18;88.30;101577.53;6131546;23;20397;-67
2023/10/02 00:58:54;;;;;;;0.90;0.60;;;;;;;17.22;87.33;101581.47;6131070;23;20477;-68
2023/10/02 01:01:23;;;;;;;1.00;0.60;;;;;;;17.24;87.81;101580.16;6130343;23;20400;-68
2023/10/02 01:04:09;;;;;;;0.90;0.77;;;;;;;17.25;88.90;101581.00;6157053;23;20444;-69
2023/10/02 01:07:04;;;;;;;0.90;0.50;;;;;;;17.28;88.92;101569.63;6156738;23;20425;-70
2023/10/02 01:09:34;;;;;;;1.00;0.60;;;;;;;17.18;88.21;101569.31;6157421;23;20345;-69
2023/10/02 01:12:10;;;;;;;2.00;1.80;;;;;;;17.19;88.01;101573.72;6131926;23;20403;-69
2023/10/02 01:14:50;;;;;;;1.53;0.70;;;;;;;17.25;89.01;101570.06;6157494;23;20340;-69
2023/10/02 01:17:20;;;;;;;0.80;0.40;;;;;;;17.36;87.03;101578.34;6157040;23;20454;-68
2023/10/02 01:19:53;;;;;;;4.10;0.80;;;;;;;17.30;86.82;101579.25;6129793;23;20372;-68
2023/10/02 01:22:29;;;;;;;0.90;0.50;;;;;;;17.44;86.18;101579.91;6158652;23;20401;-68
2023/10/02 01:25:12;;;;;;;0.90;0.47;;;;;;;17.39;86.30;101587.97;6130667;23;20372;-68
2023/10/02 01:27:47;;;;;;;1.67;0.97;;;;;;;17.30;87.02;101586.63;6130179;23;20412;-68
2023/10/02 01:30:18;;;;;;;1.20;0.60;;;;;;;17.28;87.03;101594.25;6156325;23;20355;-68
2023/10/02 01:33:06;;;;;;;0.90;0.50;;;;;;;17.27;87.17;101590.66;6157007;23;20380;-70
2023/10/02 01:35:37;;;;;;;0.90;0.50;;;;;;;17.31;87.64;101585.56;6134569;23;20400;-70
2023/10/02 01:38:13;;;;;;;0.80;0.40;;;;;;;17.25;87.69;101581.00;6172175;23;20407;-68
2023/10/02 01:40:49;;;;;;;0.93;0.60;;;;;;;17.26;88.19;101579.94;6165060;23;20700;-67
2023/10/02 01:43:24;;;;;;;0.80;0.40;;;;;;;17.27;87.03;101581.63;6156568;23;20348;-69
2023/10/02 01:45:56;;;;;;;1.27;0.80;;;;;;;17.25;87.10;101589.22;6129527;23;20380;-69
2023/10/02 01:48:40;;;;;;;1.07;0.60;;;;;;;17.33;86.76;101588.91;6156098;23;20392;-69
2023/10/02 01:51:20;;;;;;;2.10;2.00;;;;;;;17.29;86.27;101588.53;6155896;23;20750;-69
2023/10/02 01:53:50;;;;;;;0.90;0.50;;;;;;;17.34;86.42;101596.03;6155943;23;20378;-68
2023/10/02 01:56:22;;;;;;;0.80;0.50;;;;;;;17.30;87.01;101587.47;6155957;23;20374;-70
2023/10/02 01:58:52;;;;;;;1.13;0.87;;;;;;;17.32;86.80;101588.06;6129667;23;20476;-69
2023/10/02 02:01:22;;;;;;;1.63;1.00;;;;;;;17.33;86.39;101586.19;6129872;23;20509;-69
2023/10/02 02:03:55;;;;;;;1.30;0.83;;;;;;;17.33;86.37;101577.97;6129900;23;20426;-68
2023/10/02 02:06:25;;;;;;;1.20;1.00;;;;;;;17.36;86.29;101577.50;6155416;23;20443;-68
2023/10/02 02:08:58;;;;;;;1.40;0.60;;;;;;;17.31;86.46;101571.88;6155763;23;20403;-67
2023/10/02 02:11:34;;;;;;;1.47;1.23;;;;;;;17.28;86.19;101575.09;6155723;23;20433;-68
2023/10/02 02:14:04;;;;;;;0.87;0.47;;;;;;;17.29;86.50;101571.28;6155738;23;20717;-69
2023/10/02 02:16:34;;;;;;;0.80;0.40;;;;;;;17.28;87.08;101575.09;6129225;23;20467;-69
2023/10/02 02:19:06;;;;;;;0.80;0.40;;;;;;;17.39;85.91;101577.88;6156107;23;20386;-69
2023/10/02 02:21:38;;;;;;;0.90;0.70;;;;;;;17.32;86.58;101573.56;6155543;23;20380;-69
2023/10/02 02:24:11;;;;;;;1.00;0.83;;;;;;;17.25;87.26;101575.53;6155663;23;20566;-69
2023/10/02 02:26:42;;;;;;;0.90;0.40;;;;;;;17.33;86.57;101572.50;6155424;23;20435;-69
2023/10/02 02:29:23;;;;;;;3.27;0.80;;;;;;;17.42;85.82;101570.28;6155326;23;20417;-69
2023/10/02 02:31:54;;;;;;;0.90;0.40;;;;;;;17.34;86.52;101560.47;6129155;23;20426;-69
2023/10/02 02:34:25;;;;;;;1.37;1.27;;;;;;;17.34;86.72;101574.16;6155056;23;20878;-69
2023/10/02 02:36:57;;;;;;;0.90;0.50;;;;;;;17.40;86.27;101573.25;6155428;23;20404;-69
2023/10/02 02:39:27;;;;;;;0.80;0.40;;;;;;;17.36;86.44;101569.28;6155451;23;20380;-69
2023/10/02 02:42:18;;;;;;;1.07;0.80;;;;;;;17.39;86.64;101566.09;6155712;23;20879;-68
2023/10/02 02:44:49;;;;;;;1.33;1.23;;;;;;;17.21;87.79;101557.91;6155400;23;20440;-70
2023/10/02 02:47:21;;;;;;;0.90;0.50;;;;;;;17.20;89.02;101567.19;6155755;23;20349;-68
2023/10/02 02:49:52;;;;;;;0.90;0.40;;;;;;;17.18;91.33;101564.69;6155468;23;20883;-67
2023/10/02 02:53:12;;;;;;;0.90;0.60;;;;;;;17.08;91.10;101569.03;6155638;23;20442;-70
2023/10/02 02:55:33;;;;;;;0.80;0.40;;;;;;;16.98;90.78;101574.19;6129532;23;20441;-69
2023/10/02 02:58:03;;;;;;;1.00;0.70;;;;;;;16.92;90.54;101570.47;6155741;23;20461;-68
2023/10/02 03:00:35;;;;;;;1.10;0.90;;;;;;;16.82;91.50;101568.25;6155519;23;20382;-68
2023/10/02 03:03:29;;;;;;;0.87;0.50;;;;;;;16.83;92.45;101560.91;6155365;23;20344;-69
2023/10/02 03:05:58;;;;;;;5.43;0.97;;;;;;;16.85;93.76;101565.06;6154919;23;20374;-69
2023/10/02 03:08:37;;;;;;;0.90;0.40;;;;;;;16.73;94.19;101566.88;6155449;23;20389;-67
2023/10/02 03:11:07;;;;;;;1.13;0.50;;;;;;;16.66;93.67;101565.28;6155501;23;20437;-69
2023/10/02 03:13:39;;;;;;;1.03;0.83;;;;;;;16.53;94.16;101561.59;6155063;23;20813;-68
2023/10/02 03:16:17;;;;;;;0.90;0.50;;;;;;;16.47;94.73;101561.66;6156008;23;20437;-68
2023/10/02 03:18:48;;;;;;;0.80;0.40;;;;;;;16.39;95.62;101556.47;6155620;23;20344;-69
2023/10/02 03:21:21;;;;;;;0.90;0.67;;;;;;;16.33;96.15;101549.19;6156082;23;20459;-69
2023/10/02 03:23:53;;;;;;;1.57;0.60;;;;;;;16.29;97.33;101551.53;6156317;23;20540;-68
2023/10/02 03:26:37;;;;;;;1.20;1.10;;;;;;;16.21;97.11;101546.34;6155983;23;20810;-68
2023/10/02 03:29:11;;;;;;;0.87;0.50;;;;;;;16.02;97.90;101548.16;6155031;23;20395;-68
2023/10/02 03:31:49;;;;;;;0.80;0.50;;;;;;;15.95;98.58;101557.47;6155131;23;20387;-68
2023/10/02 03:34:28;;;;;;;0.90;0.50;;;;;;;15.91;99.09;101546.19;6155850;23;20376;-70
2023/10/02 03:37:00;;;;;;;0.90;0.50;;;;;;;15.76;99.30;101553.84;6156753;23;20357;-69
2023/10/02 03:42:21;;;;;;;0.87;0.50;;;;;;;15.61;100.00;101545.13;6157546;23;20492;-68
2023/10/02 03:44:56;;;;;;;0.80;0.50;;;;;;;15.59;100.00;101541.75;6157581;23;20435;-69
2023/10/02 03:47:27;;;;;;;2.60;2.10;;;;;;;15.56;100.00;101537.59;6156227;23;20349;-70
2023/10/02 03:50:00;;;;;;;0.80;0.50;;;;;;;15.59;100.00;101533.56;6156727;23;20397;-69
2023/10/02 03:52:32;;;;;;;0.90;0.50;;;;;;;15.51;100.00;101533.84;6156551;23;20418;-68
2023/10/02 03:55:14;;;;;;;0.80;0.50;;;;;;;15.44;100.00;101525.66;6157714;23;20348;-70
2023/10/02 03:57:50;;;;;;;3.40;1.00;;;;;;;15.51;100.00;101531.13;6134800;23;20376;-69
2023/10/02 04:00:26;;;;;;;0.80;0.47;;;;;;;15.61;100.00;101535.03;6160826;23;20366;-69
2023/10/02 04:02:56;;;;;;;0.80;0.50;;;;;;;15.63;100.00;101529.38;6160584;23;20380;-68
2023/10/02 04:05:42;;;;;;;3.73;1.60;;;;;;;15.58;100.00;101530.03;6160301;23;20739;-68
2023/10/02 04:08:24;;;;;;;1.10;0.63;;;;;;;15.50;100.00;101534.88;6156520;23;20345;-66
2023/10/02 04:10:56;;;;;;;0.80;0.40;;;;;;;15.49;100.00;101528.56;6156345;23;20380;-70
2023/10/02 04:13:34;;;;;;;0.80;0.40;;;;;;;15.39;100.00;101525.50;6156478;23;20863;-69
2023/10/02 04:18:58;;;;;;;1.43;0.70;;;;;;;15.29;100.00;101524.31;6154768;23;20374;-69
2023/10/02 04:21:28;;;;;;;1.20;0.97;;;;;;;15.22;100.00;101514.25;6154725;23;20416;-68
2023/10/02 04:23:58;;;;;;;0.80;0.50;;;;;;;15.16;100.00;101522.47;6155115;23;20360;-67
2023/10/02 04:26:28;;;;;;;0.80;0.50;;;;;;;15.15;100.00;101515.38;6155264;23;20392;-67
2023/10/02 04:33:07;;;;;;;1.10;1.00;;;;;;;15.20;100.00;101518.28;6157113;23;20842;-68
2023/10/02 04:35:44;;;;;;;0.80;0.40;;;;;;;15.17;100.00;101515.97;6156865;23;20378;-69
2023/10/02 04:38:14;;;;;;;0.90;0.70;;;;;;;15.07;100.00;101516.44;6156966;23;20847;-68
2023/10/02 04:40:49;;;;;;;0.80;0.40;;;;;;;15.03;100.00;101517.91;6157104;23;20370;-69
2023/10/02 04:43:23;;;;;;;1.77;0.87;;;;;;;14.99;100.00;101510.41;6156634;23;20707;-68
2023/10/02 04:46:01;;;;;;;0.80;0.40;;;;;;;14.91;100.00;101510.66;6156555;23;20434;-69
2023/10/02 04:48:39;;;;;;;0.90;0.60;;;;;;;14.93;100.00;101509.38;6156629;23;20384;-69
2023/10/02 04:51:09;;;;;;;0.80;0.50;;;;;;;15.00;100.00;101509.34;6156599;23;20405;-68
2023/10/02 04:53:42;;;;;;;0.80;0.50;;;;;;;14.96;100.00;101513.56;6156649;23;20374;-68
2023/10/02 04:56:21;;;;;;;1.00;0.60;;;;;;;14.83;100.00;101508.13;6156425;23;20885;-67
2023/10/02 04:58:51;;;;;;;0.90;0.70;;;;;;;14.77;100.00;101509.84;6156496;23;20352;-69
2023/10/02 05:01:34;;;;;;;1.40;1.00;;;;;;;14.89;100.00;101508.13;6156355;23;20380;-67
2023/10/02 05:04:06;;;;;;;0.93;0.70;;;;;;;14.85;100.00;101516.94;6156567;23;20402;-67
2023/10/02 05:06:52;;;;;;;0.80;0.40;;;;;;;14.81;100.00;101507.53;6156823;23;20379;-68
2023/10/02 05:09:38;;;;;;;2.30;2.10;;;;;;;14.77;100.00;101505.22;6156442;23;20416;-71
2023/10/02 05:12:06;;;;;;;0.90;0.70;;;;;;;14.73;100.00;101509.44;6155931;23;20431;-68
2023/10/02 05:14:48;;;;;;;0.80;0.40;;;;;;;14.71;100.00;101513.44;6156279;23;20356;-70
2023/10/02 05:17:19;;;;;;;0.80;0.60;;;;;;;14.81;100.00;101516.56;6156185;23;20356;-69
2023/10/02 05:20:00;;;;;;;1.40;0.87;;;;;;;14.89;100.00;101513.56;6156105;23;20425;-68
2023/10/02 05:22:31;;;;;;;0.90;0.77;;;;;;;14.81;100.00;101515.72;6156867;23;20433;-68
2023/10/02 05:25:04;;;;;;;0.80;0.50;;;;;;;14.83;100.00;101517.16;6157082;23;20397;-69
2023/10/02 05:27:35;;;;;;;1.20;0.77;;;;;;;14.78;100.00;101512.34;6156736;23;20404;-68
2023/10/02 05:30:12;;;;;;;0.80;0.43;;;;;;;14.80;100.00;101506.69;6156357;23;20392;-69
2023/10/02 05:32:42;;;;;;;0.90;0.60;;;;;;;14.85;100.00;101506.88;6129825;23;20399;-68
2023/10/02 05:35:23;;;;;;;0.80;0.50;;;;;;;14.88;100.00;101517.34;6156176;23;20377;-68
2023/10/02 05:37:54;;;;;;;0.80;0.50;;;;;;;14.99;100.00;101513.13;6155877;23;20376;-69
2023/10/02 05:40:38;;;;;;;0.80;0.40;;;;;;;15.13;100.00;101520.19;6156016;23;20684;-70
2023/10/02 05:43:18;;;;;;;1.57;0.73;;;;;;;15.19;100.00;101522.88;6156108;23;20797;-69
2023/10/02 05:45:50;;;;;;;4.10;1.47;;;;;;;15.28;100.00;101522.63;6155920;23;20374;-68
2023/10/02 05:48:31;;;;;;;0.80;0.50;;;;;;;15.35;100.00;101520.69;6155852;23;20383;-68
2023/10/02 05:51:09;;;;;;;1.17;0.70;;;;;;;15.45;100.00;101527.34;6129565;23;20447;-69
2023/10/02 05:53:53;;;;;;;0.80;0.50;;;;;;;15.65;100.00;101529.97;6156082;23;20465;-68
2023/10/02 05:56:25;;;;;;;0.90;0.70;;;;;;;15.75;99.69;101532.22;6155793;23;20428;-68
2023/10/02 05:58:55;;;;;;;0.80;0.50;;;;;;;15.96;98.12;101537.31;6156771;23;20349;-69
2023/10/02 06:01:26;;;;;;;0.80;0.40;;;;;;;16.20;95.58;101549.31;6155466;23;20380;-68
2023/10/02 06:04:00;;;;;;;2.50;0.80;;;;;;;16.25;95.76;101542.13;6155873;23;20873;-68
2023/10/02 06:06:35;;;;;;;0.80;0.50;;;;;;;16.26;95.82;101548.41;6155903;23;20341;-69
2023/10/02 06:09:13;;;;;;;2.53;1.30;;;;;;;16.36;94.80;101551.47;6155869;23;20435;-69
2023/10/02 06:12:02;;;;;;;5.63;2.00;;;;;;;16.49;93.71;101554.91;6155406;23;20373;-69
2023/10/02 06:14:38;;;;;;;0.90;0.60;;;;;;;16.56;93.33;101560.28;6155588;23;20360;-69
2023/10/02 06:17:11;;;;;;;0.90;0.70;;;;;;;16.68;92.20;101558.53;6156008;23;20862;-69
2023/10/02 06:19:45;;;;;;;1.10;1.00;;;;;;;16.63;92.16;101561.09;6155636;23;20341;-69
2023/10/02 06:22:15;;;;;;;1.10;0.93;;;;;;;16.74;91.88;101568.56;6155957;23;20405;-69
2023/10/02 06:24:45;;;;;;;1.00;0.73;;;;;;;16.88;90.53;101567.34;6155661;23;20432;-68
2023/10/02 06:27:16;;;;;;;1.10;0.83;;;;;;;16.89;90.79;101563.53;6155539;23;20395;-68
2023/10/02 06:29:47;;;;;;;0.90;0.70;;;;;;;16.99;89.79;101564.94;6155628;23;20388;-69
2023/10/02 06:32:19;;;;;;;1.53;0.70;;;;;;;17.09;89.18;101560.56;6155248;23;20380;-69
2023/10/02 06:34:50;;;;;;;1.30;0.70;;;;;;;17.15;87.93;101554.19;6154959;23;20446;-69
2023/10/02 06:37:28;;;;;;;1.23;1.13;;;;;;;17.32;87.16;101555.25;6155279;23;20375;-70
2023/10/02 06:40:04;;;;;;;0.80;0.50;;;;;;;17.42;85.75;101551.97;6155608;23;20380;-70
2023/10/02 06:42:34;;;;;;;4.00;0.70;;;;;;;17.49;85.17;101555.44;6155300;23;20380;-68
2023/10/02 06:45:05;;;;;;;0.87;0.40;;;;;;;17.55;84.69;101564.63;6155628;23;20360;-68
2023/10/02 06:47:39;;;;;;;0.90;0.70;;;;;;;17.48;84.97;101559.22;6155315;23;20823;-69
2023/10/02 06:50:27;;;;;;;1.00;0.83;;;;;;;17.61;84.84;101556.34;6155374;23;20422;-69
2023/10/02 06:52:59;;;;;;;0.80;0.40;;;;;;;17.82;83.38;101554.97;6155906;23;20345;-67
2023/10/02 06:55:29;;;;;;;1.00;0.63;;;;;;;17.75;84.15;101559.72;6129629;23;20405;-68
2023/10/02 06:57:58;;;;;;;0.90;0.60;;;;;;;17.83;83.68;101547.59;6155561;23;20822;-69
2023/10/02 07:00:54;;;;;;;1.30;0.77;;;;;;;17.95;83.15;101548.47;6155513;23;20569;-69
2023/10/02 07:03:17;;;;;;;1.00;0.80;;;;;;;17.90;83.00;101556.56;6155572;23;20372;-68
2023/10/02 07:05:47;;;;;;;3.30;1.77;;;;;;;18.12;81.17;101552.19;6129447;23;20402;-68
2023/10/02 07:08:18;;;;;;;0.90;0.50;;;;;;;18.16;81.58;101556.94;6157891;23;20477;-67
2023/10/02 07:10:48;;;;;;;1.10;0.70;;;;;;;18.26;81.33;101561.84;6156906;23;20747;-68
2023/10/02 07:13:20;;;;;;;1.00;0.60;;;;;;;18.41;80.25;101553.16;6155935;23;20367;-69
2023/10/02 07:15:53;;;;;;;1.40;0.83;;;;;;;18.46;79.15;101558.75;6156579;23;20349;-67
2023/10/02 07:18:35;;;;;;;0.90;0.50;;;;;;;18.63;78.57;101557.84;6156118;23;20387;-69
2023/10/02 07:21:07;;;;;;;1.07;0.97;;;;;;;18.67;78.26;101559.03;6155898;23;20399;-68
2023/10/02 07:23:38;;;;;;;1.73;1.27;;;;;;;18.72;77.44;101560.22;6156015;23;20348;-68
2023/10/02 07:26:14;;;;;;;1.00;0.60;;;;;;;18.92;77.12;101566.16;6155446;23;20435;-68
2023/10/02 07:28:50;;;;;;;2.20;0.67;;;;;;;18.97;76.65;101561.63;6156473;23;20383;-68
2023/10/02 07:32:20;;;;;;;1.00;0.70;;;;;;;19.23;75.12;101562.13;6155505;23;20436;-67
2023/10/02 07:34:51;;;;;;;1.30;0.70;;;;;;;19.08;75.92;101555.25;6155574;23;20411;-68
2023/10/02 07:37:22;;;;;;;1.00;0.60;;;;;;;19.18;75.58;101553.78;6156255;23;20957;-67
2023/10/02 07:40:00;;;;;;;1.83;1.67;;;;;;;19.31;75.88;101546.13;6156347;23;20349;-68
2023/10/02 07:42:31;;;;;;;1.43;1.23;;;;;;;19.44;75.74;101553.28;6156116;23;20765;-69
2023/10/02 07:45:12;;;;;;;2.23;2.03;;;;;;;19.52;76.01;101550.97;6155658;23;20811;-69
2023/10/02 07:48:07;;;;;;;2.47;1.03;;;;;;;19.73;74.81;101556.84;6156482;23;20738;-70
2023/10/02 07:50:34;;;;;;;1.00;0.60;;;;;;;19.84;74.02;101561.44;6155592;23;20434;-69
2023/10/02 07:53:04;;;;;;;0.90;0.50;;;;;;;20.06;71.71;101556.88;6155184;23;20788;-67
2023/10/02 07:55:40;;;;;;;1.00;0.67;;;;;;;20.26;70.74;101557.22;6155237;23;20382;-71
2023/10/02 07:58:13;;;;;;;1.10;0.90;;;;;;;20.37;70.04;101561.84;6128912;23;20431;-68
2023/10/02 08:00:42;;;;;;;0.90;0.40;;;;;;;20.48;69.58;101551.00;6154915;23;20460;-68
2023/10/02 08:03:34;;;;;;;1.43;0.77;;;;;;;20.74;69.05;101559.34;6155203;23;20393;-67
2023/10/02 08:06:20;;;;;;;1.33;0.60;;;;;;;21.06;66.79;101551.25;6156380;23;20377;-68
2023/10/02 08:09:35;;;;;;;1.87;0.73;;;;;;;21.28;66.07;101564.22;6156805;23;20374;-69
2023/10/02 08:11:49;;;;;;;0.90;0.40;;;;;;;21.29;65.50;101555.69;6131028;23;20472;-71
2023/10/02 08:14:38;;;;;;;1.00;0.60;;;;;;;21.59;64.93;101555.22;6131709;23;20433;-68
2023/10/02 08:17:18;;;;;;;1.47;0.70;;;;;;;21.78;63.50;101552.94;6157891;23;20368;-68
2023/10/02 08:19:56;;;;;;;0.90;0.50;;;;;;;22.09;63.25;101557.63;6157484;23;20385;-68
2023/10/02 08:22:35;;;;;;;1.10;0.60;;;;;;;22.24;62.48;101559.69;6157492;23;20420;-69
2023/10/02 08:25:13;;;;;;;1.90;1.70;;;;;;;22.38;61.38;101563.66;6157606;23;20403;-69
2023/10/02 08:27:45;;;;;;;1.77;0.70;;;;;;;22.34;61.60;101554.25;6157011;23;20374;-70
2023/10/02 08:30:27;;;;;;;1.67;1.43;;;;;;;22.42;61.35;101559.28;6157058;23;20355;-68
2023/10/02 08:33:05;;;;;;;1.10;0.73;;;;;;;22.47;61.80;101562.06;6157185;23;20349;-69
2023/10/02 08:35:46;;;;;;;1.53;1.43;;;;;;;22.39;62.26;101559.81;6157065;23;20877;-69
2023/10/02 08:38:22;;;;;;;1.77;0.60;;;;;;;22.35;61.77;101547.66;6157571;23;20369;-68
2023/10/02 08:40:57;;;;;;;1.20;0.83;;;;;;;22.30;61.64;101555.88;6157373;23;20444;-69
2023/10/02 08:43:29;;;;;;;0.90;0.40;;;;;;;22.14;61.96;101548.59;6157017;23;20384;-68
2023/10/02 08:45:59;;;;;;;1.37;0.50;;;;;;;22.18;62.55;101545.03;6156980;23;20860;-68
2023/10/02 08:48:31;;;;;;;1.00;0.50;;;;;;;22.42;61.93;101543.56;6156963;23;20357;-70
2023/10/02 08:51:03;;;;;;;0.90;0.50;;;;;;;22.41;62.56;101546.59;6157248;23;20767;-68
2023/10/02 08:53:33;;;;;;;1.40;0.70;;;;;;;22.61;62.02;101540.41;6157406;23;20352;-68
2023/10/02 08:56:22;;;;;;;0.90;0.40;;;;;;;22.49;61.76;101551.63;6156697;23;20398;-69
2023/10/02 09:01:35;;;;;;;1.00;0.50;;;;;;;22.63;62.26;101544.53;6155581;23;20413;-68
2023/10/02 09:07:14;;;;;;;1.10;0.50;;;;;;;23.01;61.35;101546.13;6156184;23;20862;-69
2023/10/02 09:09:54;;;;;;;1.53;1.13;;;;;;;23.35;59.57;101546.53;6156602;23;20385;-67
2023/10/02 09:12:25;;;;;;;1.10;0.70;;;;;;;23.50;58.82;101540.28;6157068;23;20429;-68
2023/10/02 09:15:20;;;;;;;1.00;0.60;;;;;;;23.55;58.53;101543.03;6156647;23;20759;-67
2023/10/02 09:18:00;;;;;;;1.20;0.70;;;;;;;23.72;58.20;101546.41;6156170;23;20389;-68
2023/10/02 09:20:38;;;;;;;0.90;0.40;;;;;;;23.72;59.02;101541.69;6156274;23;20394;-69
2023/10/02 09:23:09;;;;;;;1.10;0.40;;;;;;;24.00;57.84;101542.28;6157197;23;20370;-69
2023/10/02 09:25:40;;;;;;;0.90;0.50;;;;;;;24.09;56.27;101543.38;6157360;23;20388;-72
2023/10/02 09:28:14;;;;;;;0.90;0.57;;;;;;;24.32;55.50;101539.25;6157023;23;20382;-71
2023/10/02 09:30:45;;;;;;;3.37;0.87;;;;;;;24.51;55.71;101535.63;6156496;23;20383;-69
2023/10/02 09:33:22;;;;;;;1.10;0.70;;;;;;;24.58;55.41;101522.34;6156712;23;20421;-69
2023/10/02 09:36:15;;;;;;;0.90;0.50;;;;;;;24.66;54.84;101510.69;6155426;23;20425;-67
2023/10/02 09:39:31;;;;;;;1.00;0.50;;;;;;;24.73;54.21;101515.13;6156170;23;20473;-71
2023/10/02 09:42:05;;;;;;;1.00;0.60;;;;;;;24.82;54.39;101516.19;6160840;23;20409;-69
2023/10/02 09:44:45;;;;;;;0.90;0.43;;;;;;;24.98;54.10;101523.38;6158412;23;20374;-70
2023/10/02 09:47:21;;;;;;;0.90;0.40;;;;;;;25.00;53.15;101512.81;6158871;23;20370;-68
2023/10/02 09:50:10;;;;;;;0.90;0.50;;;;;;;24.89;52.95;101512.03;6159126;23;20369;-71
2023/10/02 09:52:58;;;;;;;2.20;1.63;;;;;;;25.06;53.11;101511.69;6159176;23;20432;-71
2023/10/02 09:55:51;;;;;;;1.50;0.80;;;;;;;25.23;52.45;101512.16;6160403;23;20518;-70
2023/10/02 09:58:27;;;;;;;1.33;0.63;;;;;;;25.36;51.45;101508.78;6160277;23;20466;-68
2023/10/02 10:01:29;;;;;;;1.60;1.10;;;;;;;25.38;51.77;101506.53;6159219;23;20413;-70
2023/10/02 10:03:59;;;;;;;1.00;0.40;;;;;;;25.75;51.83;101508.81;6159047;23;20452;-68
2023/10/02 10:06:41;;;;;;;0.97;0.50;;;;;;;26.05;50.12;101502.16;6158928;23;20394;-68
2023/10/02 10:09:50;;;;;;;1.00;0.57;;;;;;;26.14;49.51;101500.41;6158904;23;20693;-69
2023/10/02 10:12:21;;;;;;;0.90;0.40;;;;;;;26.29;49.30;101491.16;6158284;23;20429;-69
2023/10/02 10:14:54;;;;;;;1.53;0.77;;;;;;;26.42;49.69;101492.44;6158886;23;20515;-71
2023/10/02 10:17:53;;;;;;;2.27;0.50;;;;;;;26.18;49.57;101489.59;6157952;23;20710;-70
2023/10/02 10:20:30;;;;;;;1.77;1.67;;;;;;;26.57;48.90;101482.00;6150303;23;20428;-70
2023/10/02 10:23:18;;;;;;;1.10;0.70;;;;;;;26.79;48.74;101487.00;6158561;23;20400;-69
2023/10/02 10:25:53;;;;;;;1.00;0.40;;;;;;;26.62;48.39;101483.88;6156588;23;20440;-68
2023/10/02 10:28:28;;;;;;;1.53;0.73;;;;;;;26.57;49.46;101490.31;6155407;23;20373;-70
2023/10/02 10:31:01;;;;;;;1.40;0.63;;;;;;;26.41;48.82;101486.06;6155404;23;20488;-68
2023/10/02 10:33:40;;;;;;;0.90;0.50;;;;;;;26.44;48.37;101481.84;6155718;23;20420;-69
2023/10/02 10:36:39;;;;;;;0.90;0.40;;;;;;;26.32;49.50;101485.88;6155798;23;20441;-71
2023/10/02 10:40:09;;;;;;;1.20;0.57;;;;;;;26.33;49.23;101481.16;6155618;23;20377;-69
2023/10/02 10:42:56;;;;;;;1.53;0.70;;;;;;;26.26;49.59;101481.47;6036607;23;20424;-68
2023/10/02 10:45:25;;;;;;;3.40;0.60;;;;;;;25.93;50.27;101471.22;6036380;23;20409;-69
2023/10/02 10:47:54;;;;;;;0.90;0.40;;;;;;;25.95;50.69;101464.25;6119364;23;20402;-69
2023/10/02 10:50:30;;;;;;;1.00;0.50;;;;;;;26.11;50.53;101462.19;6157405;23;20370;-71
2023/10/02 10:53:26;;;;;;;1.20;0.60;;;;;;;26.21;50.44;101462.13;6156369;23;20456;-69
2023/10/02 10:55:55;;;;;;;1.00;0.70;;;;;;;26.24;50.65;101458.75;6157296;23;20397;-69
2023/10/02 10:58:31;;;;;;;0.90;0.40;;;;;;;26.16;50.87;101458.53;6157169;23;20375;-69
2023/10/02 11:01:02;;;;;;;1.00;0.70;;;;;;;26.17;50.47;101449.91;6159314;23;20409;-69
2023/10/02 11:03:31;;;;;;;1.07;0.50;;;;;;;26.04;50.32;101445.06;6159405;23;20375;-69
2023/10/02 11:06:02;;;;;;;1.30;0.60;;;;;;;26.14;50.65;101442.16;6157710;23;20734;-70
2023/10/02 11:08:37;;;;;;;1.33;0.60;;;;;;;26.20;50.08;101449.31;6157897;23;20378;-69
2023/10/02 11:11:18;;;;;;;0.90;0.50;;;;;;;25.97;50.74;101444.56;6159267;23;20412;-70
2023/10/02 11:13:50;;;;;;;1.47;0.60;;;;;;;26.17;50.49;101443.53;6159270;23;20418;-68
2023/10/02 11:16:30;;;;;;;0.90;0.40;;;;;;;26.11;50.94;101433.63;6159580;23;20366;-69
2023/10/02 11:19:25;;;;;;;0.90;0.50;;;;;;;26.22;50.75;101433.25;6159391;23;20374;-68
2023/10/02 11:22:20;;;;;;;0.90;0.40;;;;;;;26.07;51.33;101432.53;6155323;23;20433;-68
2023/10/02 11:25:18;;;;;;;0.90;0.40;;;;;;;25.97;51.05;101427.94;6129287;23;20402;-71
2023/10/02 11:27:57;;;;;;;0.90;0.40;;;;;;;26.21;50.64;101423.28;6155282;23;20386;-69
2023/10/02 11:30:36;;;;;;;1.67;0.50;;;;;;;26.35;50.43;101435.31;6155547;23;20433;-69
2023/10/02 11:33:07;;;;;;;1.00;0.60;;;;;;;26.41;50.63;101430.56;6130498;23;20433;-70
2023/10/02 11:35:41;;;;;;;0.90;0.40;;;;;;;26.30;50.79;101426.22;6129478;23;20881;-69
2023/10/02 11:38:10;;;;;;;1.37;0.77;;;;;;;26.53;50.99;101430.16;6155093;23;20715;-69
2023/10/02 11:40:43;;;;;;;1.00;0.50;;;;;;;26.57;49.79;101425.66;6157187;23;20420;-69
2023/10/02 11:43:15;;;;;;;0.97;0.50;;;;;;;26.48;49.72;101427.44;6160391;23;20398;-68
2023/10/02 11:45:47;;;;;;;1.00;0.70;;;;;;;26.53;49.96;101425.41;6158748;23;20381;-69
2023/10/02 11:48:17;;;;;;;4.23;0.70;;;;;;;26.71;49.77;101418.25;6157838;23;20456;-69
2023/10/02 11:50:47;;;;;;;1.00;0.57;;;;;;;26.91;49.16;101420.78;6157186;23;20374;-69
2023/10/02 11:53:15;;;;;;;0.90;0.50;;;;;;;27.01;48.82;101425.38;6156879;23;20421;-69
2023/10/02 11:55:48;;;;;;;1.10;0.50;;;;;;;26.90;49.17;101424.69;6131246;23;20416;-70
2023/10/02 11:58:19;;;;;;;1.00;0.60;;;;;;;26.89;49.63;101423.03;6157388;23;20917;-71
2023/10/02 12:00:47;;;;;;;1.20;1.07;;;;;;;27.01;49.34;101417.88;6158129;23;20405;-70
2023/10/02 12:03:18;;;;;;;1.00;0.40;;;;;;;27.02;48.67;101416.72;6156662;23;20380;-69
2023/10/02 12:05:50;;;;;;;1.00;0.50;;;;;;;26.65;49.61;101416.66;6157013;23;20453;-70
2023/10/02 12:08:21;;;;;;;1.07;0.50;;;;;;;26.73;49.88;101413.22;6156930;23;20453;-69
2023/10/02 12:10:56;;;;;;;1.10;0.60;;;;;;;26.85;49.85;101415.56;6156556;23;20406;-70
2023/10/02 12:13:26;;;;;;;1.00;0.50;;;;;;;26.55;49.50;101416.78;6155942;23;20432;-69
2023/10/02 12:15:58;;;;;;;3.00;0.80;;;;;;;26.13;49.83;101412.81;6158168;23;20390;-70
2023/10/02 12:18:27;;;;;;;2.93;0.90;;;;;;;25.94;50.70;101412.72;6158384;23;20894;-67
2023/10/02 12:20:56;;;;;;;1.10;0.77;;;;;;;26.19;50.59;101405.25;6158452;23;20405;-69
2023/10/02 12:23:25;;;;;;;1.83;0.67;;;;;;;26.42;49.96;101411.94;6156917;23;20385;-68
2023/10/02 12:25:56;;;;;;;1.00;0.80;;;;;;;26.76;49.99;101412.63;6156985;23;20425;-69
2023/10/02 12:28:26;;;;;;;1.83;0.87;;;;;;;26.71;48.91;101413.53;6131513;23;20432;-68